sensor_id;sensor_type;location;lat;lon;timestamp;P1;durP1;ratioP1;P2;durP2;ratioP2
15258;SDS011;34462;51.368;12.364;2023-07-28T00:00:40;1.30;;;1.10;;
15258;SDS011;34462;51.368;12.364;2023-07-28T00:03:12;3.08;;;1.30;;
15258;SDS011;34462;51.368;12.364;2023-07-28T00:05:40;2.40;;;0.98;;
15258;SDS011;34462;51.368;12.364;2023-07-28T00:08:09;2.08;;;1.35;;
15258;SDS011;34462;51.368;12.364;2023-07-28T00:10:39;1.38;;;1.25;;
15258;SDS011;34462;51.368;12.364;2023-07-28T00:13:08;2.40;;;1.00;;
15258;SDS011;34462;51.368;12.364;2023-07-28T00:15:37;1.40;;;1.30;;
15258;SDS011;34462;51.368;12.364;2023-07-28T00:18:05;2.50;;;1.20;;
15258;SDS011;34462;51.368;12.364;2023-07-28T00:20:35;3.15;;;1.52;;
15258;SDS011;34462;51.368;12.364;2023-07-28T00:23:04;1.30;;;1.20;;
15258;SDS011;34462;51.368;12.364;2023-07-28T00:25:32;1.65;;;1.30;;
15258;SDS011;34462;51.368;12.364;2023-07-28T00:28:01;2.53;;;1.30;;
15258;SDS011;34462;51.368;12.364;2023-07-28T00:30:29;1.52;;;1.38;;
15258;SDS011;34462;51.368;12.364;2023-07-28T00:32:58;2.17;;;1.20;;
15258;SDS011;34462;51.368;12.364;2023-07-28T00:35:27;1.77;;;1.20;;
15258;SDS011;34462;51.368;12.364;2023-07-28T00:37:57;1.85;;;1.20;;
15258;SDS011;34462;51.368;12.364;2023-07-28T00:40:25;1.08;;;1.00;;
15258;SDS011;34462;51.368;12.364;2023-07-28T00:42:54;1.55;;;1.17;;
15258;SDS011;34462;51.368;12.364;2023-07-28T00:45:22;3.22;;;1.15;;
15258;SDS011;34462;51.368;12.364;2023-07-28T00:47:51;1.20;;;1.10;;
15258;SDS011;34462;51.368;12.364;2023-07-28T00:50:20;1.20;;;1.10;;
15258;SDS011;34462;51.368;12.364;2023-07-28T00:52:49;1.30;;;0.98;;
15258;SDS011;34462;51.368;12.364;2023-07-28T00:55:19;1.90;;;1.10;;
15258;SDS011;34462;51.368;12.364;2023-07-28T00:57:48;1.27;;;1.17;;
15258;SDS011;34462;51.368;12.364;2023-07-28T01:00:17;1.00;;;0.90;;
15258;SDS011;34462;51.368;12.364;2023-07-28T01:02:45;1.15;;;1.00;;
15258;SDS011;34462;51.368;12.364;2023-07-28T01:05:14;1.02;;;0.93;;
15258;SDS011;34462;51.368;12.364;2023-07-28T01:07:43;1.38;;;1.05;;
15258;SDS011;34462;51.368;12.364;2023-07-28T01:10:18;2.92;;;0.90;;
15258;SDS011;34462;51.368;12.364;2023-07-28T01:12:53;3.17;;;0.98;;
15258;SDS011;34462;51.368;12.364;2023-07-28T01:15:22;1.38;;;0.73;;
15258;SDS011;34462;51.368;12.364;2023-07-28T01:17:50;1.23;;;0.90;;
15258;SDS011;34462;51.368;12.364;2023-07-28T01:20:19;1.75;;;1.00;;
15258;SDS011;34462;51.368;12.364;2023-07-28T01:23:03;1.48;;;0.90;;
15258;SDS011;34462;51.368;12.364;2023-07-28T01:25:49;2.33;;;1.38;;
15258;SDS011;34462;51.368;12.364;2023-07-28T01:28:24;3.05;;;0.95;;
15258;SDS011;34462;51.368;12.364;2023-07-28T01:30:53;0.82;;;0.80;;
15258;SDS011;34462;51.368;12.364;2023-07-28T01:33:22;1.52;;;1.00;;
15258;SDS011;34462;51.368;12.364;2023-07-28T01:35:50;1.15;;;1.00;;
15258;SDS011;34462;51.368;12.364;2023-07-28T01:38:19;1.50;;;0.80;;
15258;SDS011;34462;51.368;12.364;2023-07-28T01:40:47;2.17;;;0.90;;
15258;SDS011;34462;51.368;12.364;2023-07-28T01:43:16;1.38;;;0.90;;
15258;SDS011;34462;51.368;12.364;2023-07-28T01:45:45;3.25;;;1.00;;
15258;SDS011;34462;51.368;12.364;2023-07-28T01:48:14;1.08;;;0.98;;
15258;SDS011;34462;51.368;12.364;2023-07-28T01:50:42;0.95;;;0.80;;
15258;SDS011;34462;51.368;12.364;2023-07-28T01:53:11;1.48;;;0.90;;
15258;SDS011;34462;51.368;12.364;2023-07-28T01:55:39;2.97;;;1.02;;
15258;SDS011;34462;51.368;12.364;2023-07-28T01:58:08;1.75;;;0.93;;
15258;SDS011;34462;51.368;12.364;2023-07-28T02:00:37;2.00;;;0.88;;
15258;SDS011;34462;51.368;12.364;2023-07-28T02:03:06;2.88;;;0.93;;
15258;SDS011;34462;51.368;12.364;2023-07-28T02:05:35;2.00;;;1.05;;
15258;SDS011;34462;51.368;12.364;2023-07-28T02:08:03;2.55;;;1.10;;
15258;SDS011;34462;51.368;12.364;2023-07-28T02:10:32;1.48;;;1.00;;
15258;SDS011;34462;51.368;12.364;2023-07-28T02:13:00;1.80;;;1.00;;
15258;SDS011;34462;51.368;12.364;2023-07-28T02:15:29;0.98;;;0.90;;
15258;SDS011;34462;51.368;12.364;2023-07-28T02:17:57;1.00;;;0.90;;
15258;SDS011;34462;51.368;12.364;2023-07-28T02:20:27;1.42;;;1.00;;
15258;SDS011;34462;51.368;12.364;2023-07-28T02:22:56;1.48;;;1.00;;
15258;SDS011;34462;51.368;12.364;2023-07-28T02:25:25;0.90;;;0.80;;
15258;SDS011;34462;51.368;12.364;2023-07-28T02:27:53;2.38;;;1.20;;
15258;SDS011;34462;51.368;12.364;2023-07-28T02:30:22;0.90;;;0.90;;
15258;SDS011;34462;51.368;12.364;2023-07-28T02:32:50;1.88;;;1.00;;
15258;SDS011;34462;51.368;12.364;2023-07-28T02:35:19;1.15;;;0.85;;
15258;SDS011;34462;51.368;12.364;2023-07-28T02:37:49;1.27;;;0.80;;
15258;SDS011;34462;51.368;12.364;2023-07-28T02:40:17;2.17;;;1.38;;
15258;SDS011;34462;51.368;12.364;2023-07-28T02:42:46;3.00;;;1.08;;
15258;SDS011;34462;51.368;12.364;2023-07-28T02:45:14;1.45;;;0.90;;
15258;SDS011;34462;51.368;12.364;2023-07-28T02:47:43;1.23;;;1.10;;
15258;SDS011;34462;51.368;12.364;2023-07-28T02:50:11;3.58;;;1.10;;
15258;SDS011;34462;51.368;12.364;2023-07-28T02:52:40;1.88;;;1.08;;
15258;SDS011;34462;51.368;12.364;2023-07-28T02:55:10;1.08;;;0.80;;
15258;SDS011;34462;51.368;12.364;2023-07-28T02:57:38;1.52;;;1.00;;
15258;SDS011;34462;51.368;12.364;2023-07-28T03:00:07;1.70;;;1.20;;
15258;SDS011;34462;51.368;12.364;2023-07-28T03:02:37;1.00;;;1.00;;
15258;SDS011;34462;51.368;12.364;2023-07-28T03:05:06;2.28;;;1.00;;
15258;SDS011;34462;51.368;12.364;2023-07-28T03:07:35;1.33;;;0.98;;
15258;SDS011;34462;51.368;12.364;2023-07-28T03:10:03;2.42;;;0.90;;
15258;SDS011;34462;51.368;12.364;2023-07-28T03:12:34;2.75;;;1.00;;
15258;SDS011;34462;51.368;12.364;2023-07-28T03:15:03;2.58;;;0.98;;
15258;SDS011;34462;51.368;12.364;2023-07-28T03:17:32;2.95;;;1.10;;
15258;SDS011;34462;51.368;12.364;2023-07-28T03:20:01;3.35;;;0.90;;
15258;SDS011;34462;51.368;12.364;2023-07-28T03:22:29;1.00;;;0.90;;
15258;SDS011;34462;51.368;12.364;2023-07-28T03:24:58;2.42;;;0.80;;
15258;SDS011;34462;51.368;12.364;2023-07-28T03:27:26;1.73;;;1.00;;
15258;SDS011;34462;51.368;12.364;2023-07-28T03:29:56;1.38;;;1.10;;
15258;SDS011;34462;51.368;12.364;2023-07-28T03:32:24;1.20;;;1.10;;
15258;SDS011;34462;51.368;12.364;2023-07-28T03:34:53;2.15;;;0.82;;
15258;SDS011;34462;51.368;12.364;2023-07-28T03:37:21;1.77;;;1.00;;
15258;SDS011;34462;51.368;12.364;2023-07-28T03:39:50;1.73;;;0.80;;
15258;SDS011;34462;51.368;12.364;2023-07-28T03:42:18;3.63;;;1.00;;
15258;SDS011;34462;51.368;12.364;2023-07-28T03:44:47;1.88;;;0.90;;
15258;SDS011;34462;51.368;12.364;2023-07-28T03:47:17;1.42;;;0.90;;
15258;SDS011;34462;51.368;12.364;2023-07-28T03:49:46;2.15;;;0.90;;
15258;SDS011;34462;51.368;12.364;2023-07-28T03:52:14;2.45;;;1.00;;
15258;SDS011;34462;51.368;12.364;2023-07-28T03:54:44;1.73;;;0.88;;
15258;SDS011;34462;51.368;12.364;2023-07-28T03:57:13;1.63;;;0.93;;
15258;SDS011;34462;51.368;12.364;2023-07-28T03:59:41;1.27;;;1.08;;
15258;SDS011;34462;51.368;12.364;2023-07-28T04:02:10;1.63;;;1.13;;
15258;SDS011;34462;51.368;12.364;2023-07-28T04:04:40;2.35;;;1.00;;
15258;SDS011;34462;51.368;12.364;2023-07-28T04:07:08;2.05;;;1.00;;
15258;SDS011;34462;51.368;12.364;2023-07-28T04:09:37;1.67;;;1.08;;
15258;SDS011;34462;51.368;12.364;2023-07-28T04:12:05;1.58;;;0.90;;
15258;SDS011;34462;51.368;12.364;2023-07-28T04:14:34;2.70;;;1.00;;
15258;SDS011;34462;51.368;12.364;2023-07-28T04:17:03;1.25;;;0.90;;
15258;SDS011;34462;51.368;12.364;2023-07-28T04:19:33;1.73;;;1.08;;
15258;SDS011;34462;51.368;12.364;2023-07-28T04:22:03;0.90;;;0.90;;
15258;SDS011;34462;51.368;12.364;2023-07-28T04:24:32;0.90;;;0.90;;
15258;SDS011;34462;51.368;12.364;2023-07-28T04:27:01;4.32;;;1.15;;
15258;SDS011;34462;51.368;12.364;2023-07-28T04:29:30;2.35;;;1.08;;
15258;SDS011;34462;51.368;12.364;2023-07-28T04:31:59;2.35;;;1.05;;
15258;SDS011;34462;51.368;12.364;2023-07-28T04:34:27;2.50;;;1.90;;
15258;SDS011;34462;51.368;12.364;2023-07-28T04:36:56;2.90;;;2.53;;
15258;SDS011;34462;51.368;12.364;2023-07-28T04:39:26;2.05;;;1.20;;
15258;SDS011;34462;51.368;12.364;2023-07-28T04:41:54;1.83;;;0.90;;
15258;SDS011;34462;51.368;12.364;2023-07-28T04:44:23;1.67;;;1.10;;
15258;SDS011;34462;51.368;12.364;2023-07-28T04:46:51;1.48;;;0.95;;
15258;SDS011;34462;51.368;12.364;2023-07-28T04:49:20;2.65;;;1.08;;
15258;SDS011;34462;51.368;12.364;2023-07-28T04:51:48;1.15;;;0.90;;
15258;SDS011;34462;51.368;12.364;2023-07-28T04:54:17;2.08;;;1.10;;
15258;SDS011;34462;51.368;12.364;2023-07-28T04:56:47;1.88;;;1.10;;
15258;SDS011;34462;51.368;12.364;2023-07-28T04:59:16;2.45;;;1.00;;
15258;SDS011;34462;51.368;12.364;2023-07-28T05:01:44;2.17;;;1.08;;
15258;SDS011;34462;51.368;12.364;2023-07-28T05:04:13;1.00;;;0.93;;
15258;SDS011;34462;51.368;12.364;2023-07-28T05:06:41;1.48;;;0.90;;
15258;SDS011;34462;51.368;12.364;2023-07-28T05:09:10;1.67;;;1.13;;
15258;SDS011;34462;51.368;12.364;2023-07-28T05:11:38;1.00;;;0.93;;
15258;SDS011;34462;51.368;12.364;2023-07-28T05:14:08;0.80;;;0.80;;
15258;SDS011;34462;51.368;12.364;2023-07-28T05:16:37;3.70;;;0.98;;
15258;SDS011;34462;51.368;12.364;2023-07-28T05:19:06;1.25;;;0.98;;
15258;SDS011;34462;51.368;12.364;2023-07-28T05:21:34;4.32;;;1.10;;
15258;SDS011;34462;51.368;12.364;2023-07-28T05:24:03;7.68;;;1.30;;
15258;SDS011;34462;51.368;12.364;2023-07-28T05:26:31;7.55;;;1.33;;
15258;SDS011;34462;51.368;12.364;2023-07-28T05:29:00;2.53;;;0.90;;
15258;SDS011;34462;51.368;12.364;2023-07-28T05:31:30;1.63;;;1.08;;
15258;SDS011;34462;51.368;12.364;2023-07-28T05:33:59;5.40;;;1.40;;
15258;SDS011;34462;51.368;12.364;2023-07-28T05:36:27;3.25;;;1.00;;
15258;SDS011;34462;51.368;12.364;2023-07-28T05:38:57;2.30;;;1.00;;
15258;SDS011;34462;51.368;12.364;2023-07-28T05:41:25;2.22;;;0.90;;
15258;SDS011;34462;51.368;12.364;2023-07-28T05:43:54;2.25;;;0.70;;
15258;SDS011;34462;51.368;12.364;2023-07-28T05:46:22;0.63;;;0.60;;
15258;SDS011;34462;51.368;12.364;2023-07-28T05:48:53;1.58;;;0.70;;
15258;SDS011;34462;51.368;12.364;2023-07-28T05:51:22;0.88;;;0.75;;
15258;SDS011;34462;51.368;12.364;2023-07-28T05:53:50;0.75;;;0.57;;
15258;SDS011;34462;51.368;12.364;2023-07-28T05:56:19;1.25;;;0.77;;
15258;SDS011;34462;51.368;12.364;2023-07-28T05:58:48;1.98;;;0.80;;
15258;SDS011;34462;51.368;12.364;2023-07-28T06:01:17;1.55;;;0.90;;
15258;SDS011;34462;51.368;12.364;2023-07-28T06:03:46;0.95;;;0.82;;
15258;SDS011;34462;51.368;12.364;2023-07-28T06:06:16;1.45;;;0.60;;
15258;SDS011;34462;51.368;12.364;2023-07-28T06:08:44;2.25;;;0.70;;
15258;SDS011;34462;51.368;12.364;2023-07-28T06:11:13;0.93;;;0.70;;
15258;SDS011;34462;51.368;12.364;2023-07-28T06:13:42;3.22;;;0.80;;
15258;SDS011;34462;51.368;12.364;2023-07-28T06:16:11;2.03;;;0.80;;
15258;SDS011;34462;51.368;12.364;2023-07-28T06:18:40;0.70;;;0.68;;
15258;SDS011;34462;51.368;12.364;2023-07-28T06:21:08;1.13;;;0.70;;
15258;SDS011;34462;51.368;12.364;2023-07-28T06:23:38;0.88;;;0.70;;
15258;SDS011;34462;51.368;12.364;2023-07-28T06:26:07;1.77;;;0.75;;
15258;SDS011;34462;51.368;12.364;2023-07-28T06:28:35;0.90;;;0.65;;
15258;SDS011;34462;51.368;12.364;2023-07-28T06:31:04;1.88;;;0.60;;
15258;SDS011;34462;51.368;12.364;2023-07-28T06:33:33;0.68;;;0.68;;
15258;SDS011;34462;51.368;12.364;2023-07-28T06:36:03;0.80;;;0.60;;
15258;SDS011;34462;51.368;12.364;2023-07-28T06:38:31;0.82;;;0.60;;
15258;SDS011;34462;51.368;12.364;2023-07-28T06:41:01;0.60;;;0.60;;
15258;SDS011;34462;51.368;12.364;2023-07-28T06:43:30;2.45;;;0.70;;
15258;SDS011;34462;51.368;12.364;2023-07-28T06:45:58;0.88;;;0.70;;
15258;SDS011;34462;51.368;12.364;2023-07-28T06:48:27;2.85;;;0.70;;
15258;SDS011;34462;51.368;12.364;2023-07-28T06:50:55;1.25;;;0.85;;
15258;SDS011;34462;51.368;12.364;2023-07-28T06:53:24;0.63;;;0.63;;
15258;SDS011;34462;51.368;12.364;2023-07-28T06:55:53;0.68;;;0.65;;
15258;SDS011;34462;51.368;12.364;2023-07-28T06:58:22;0.70;;;0.70;;
15258;SDS011;34462;51.368;12.364;2023-07-28T07:00:51;4.78;;;0.93;;
15258;SDS011;34462;51.368;12.364;2023-07-28T07:03:21;1.52;;;0.70;;
15258;SDS011;34462;51.368;12.364;2023-07-28T07:05:50;0.57;;;0.57;;
15258;SDS011;34462;51.368;12.364;2023-07-28T07:08:18;0.60;;;0.60;;
15258;SDS011;34462;51.368;12.364;2023-07-28T07:10:47;0.70;;;0.68;;
15258;SDS011;34462;51.368;12.364;2023-07-28T07:13:17;1.15;;;0.70;;
15258;SDS011;34462;51.368;12.364;2023-07-28T07:15:47;0.68;;;0.60;;
15258;SDS011;34462;51.368;12.364;2023-07-28T07:18:15;1.10;;;0.70;;
15258;SDS011;34462;51.368;12.364;2023-07-28T07:20:44;1.58;;;0.70;;
15258;SDS011;34462;51.368;12.364;2023-07-28T07:23:12;1.50;;;0.80;;
15258;SDS011;34462;51.368;12.364;2023-07-28T07:25:41;0.88;;;0.70;;
15258;SDS011;34462;51.368;12.364;2023-07-28T07:28:09;1.90;;;0.70;;
15258;SDS011;34462;51.368;12.364;2023-07-28T07:30:38;0.75;;;0.70;;
15258;SDS011;34462;51.368;12.364;2023-07-28T07:33:08;0.70;;;0.70;;
15258;SDS011;34462;51.368;12.364;2023-07-28T07:35:37;0.95;;;0.88;;
15258;SDS011;34462;51.368;12.364;2023-07-28T07:38:05;0.82;;;0.63;;
15258;SDS011;34462;51.368;12.364;2023-07-28T07:40:35;0.75;;;0.75;;
15258;SDS011;34462;51.368;12.364;2023-07-28T07:43:04;1.98;;;0.80;;
15258;SDS011;34462;51.368;12.364;2023-07-28T07:45:32;2.30;;;0.77;;
15258;SDS011;34462;51.368;12.364;2023-07-28T07:48:01;0.80;;;0.80;;
15258;SDS011;34462;51.368;12.364;2023-07-28T07:50:31;0.60;;;0.60;;
15258;SDS011;34462;51.368;12.364;2023-07-28T07:52:59;0.70;;;0.65;;
15258;SDS011;34462;51.368;12.364;2023-07-28T07:55:28;1.65;;;0.70;;
15258;SDS011;34462;51.368;12.364;2023-07-28T07:57:57;0.77;;;0.77;;
15258;SDS011;34462;51.368;12.364;2023-07-28T08:00:26;0.80;;;0.80;;
15258;SDS011;34462;51.368;12.364;2023-07-28T08:02:54;1.17;;;0.70;;
15258;SDS011;34462;51.368;12.364;2023-07-28T08:05:23;1.52;;;0.70;;
15258;SDS011;34462;51.368;12.364;2023-07-28T08:07:53;1.55;;;0.70;;
15258;SDS011;34462;51.368;12.364;2023-07-28T08:10:21;2.25;;;0.80;;
15258;SDS011;34462;51.368;12.364;2023-07-28T08:12:50;0.85;;;0.80;;
15258;SDS011;34462;51.368;12.364;2023-07-28T08:15:19;0.80;;;0.80;;
15258;SDS011;34462;51.368;12.364;2023-07-28T08:17:47;0.70;;;0.70;;
15258;SDS011;34462;51.368;12.364;2023-07-28T08:20:16;1.08;;;1.00;;
15258;SDS011;34462;51.368;12.364;2023-07-28T08:22:45;0.90;;;0.90;;
15258;SDS011;34462;51.368;12.364;2023-07-28T08:25:15;0.88;;;0.88;;
15258;SDS011;34462;51.368;12.364;2023-07-28T08:27:44;1.55;;;0.80;;
15258;SDS011;34462;51.368;12.364;2023-07-28T08:30:13;1.50;;;0.75;;
15258;SDS011;34462;51.368;12.364;2023-07-28T08:32:42;0.80;;;0.80;;
15258;SDS011;34462;51.368;12.364;2023-07-28T08:35:11;2.15;;;0.85;;
15258;SDS011;34462;51.368;12.364;2023-07-28T08:37:40;1.15;;;1.02;;
15258;SDS011;34462;51.368;12.364;2023-07-28T08:40:08;1.92;;;0.80;;
15258;SDS011;34462;51.368;12.364;2023-07-28T08:42:39;2.67;;;1.00;;
15258;SDS011;34462;51.368;12.364;2023-07-28T08:45:08;0.70;;;0.70;;
15258;SDS011;34462;51.368;12.364;2023-07-28T08:47:37;0.70;;;0.70;;
15258;SDS011;34462;51.368;12.364;2023-07-28T08:50:06;1.02;;;0.70;;
15258;SDS011;34462;51.368;12.364;2023-07-28T08:52:34;0.90;;;0.90;;
15258;SDS011;34462;51.368;12.364;2023-07-28T08:55:03;1.38;;;0.80;;
15258;SDS011;34462;51.368;12.364;2023-07-28T08:57:32;0.65;;;0.65;;
15258;SDS011;34462;51.368;12.364;2023-07-28T09:00:07;0.80;;;0.80;;
15258;SDS011;34462;51.368;12.364;2023-07-28T09:02:40;1.38;;;0.90;;
15258;SDS011;34462;51.368;12.364;2023-07-28T09:05:15;1.77;;;0.95;;
15258;SDS011;34462;51.368;12.364;2023-07-28T09:07:46;0.90;;;0.90;;
15258;SDS011;34462;51.368;12.364;2023-07-28T09:10:14;2.08;;;1.00;;
15258;SDS011;34462;51.368;12.364;2023-07-28T09:12:47;0.75;;;0.75;;
15258;SDS011;34462;51.368;12.364;2023-07-28T09:15:17;1.58;;;1.10;;
15258;SDS011;34462;51.368;12.364;2023-07-28T09:17:47;0.90;;;0.90;;
15258;SDS011;34462;51.368;12.364;2023-07-28T09:20:16;1.10;;;1.00;;
15258;SDS011;34462;51.368;12.364;2023-07-28T09:22:44;1.00;;;0.80;;
15258;SDS011;34462;51.368;12.364;2023-07-28T09:25:14;1.10;;;0.90;;
15258;SDS011;34462;51.368;12.364;2023-07-28T09:27:49;3.65;;;1.00;;
15258;SDS011;34462;51.368;12.364;2023-07-28T09:30:20;1.27;;;0.90;;
15258;SDS011;34462;51.368;12.364;2023-07-28T09:32:49;1.15;;;1.00;;
15258;SDS011;34462;51.368;12.364;2023-07-28T09:35:18;1.20;;;1.10;;
15258;SDS011;34462;51.368;12.364;2023-07-28T09:37:48;1.88;;;1.20;;
15258;SDS011;34462;51.368;12.364;2023-07-28T09:40:20;1.25;;;1.10;;
15258;SDS011;34462;51.368;12.364;2023-07-28T09:42:49;0.90;;;0.85;;
15258;SDS011;34462;51.368;12.364;2023-07-28T09:45:23;0.90;;;0.90;;
15258;SDS011;34462;51.368;12.364;2023-07-28T09:48:05;2.20;;;1.08;;
15258;SDS011;34462;51.368;12.364;2023-07-28T09:50:36;0.75;;;0.75;;
15258;SDS011;34462;51.368;12.364;2023-07-28T09:53:06;1.95;;;1.02;;
15258;SDS011;34462;51.368;12.364;2023-07-28T09:55:38;1.45;;;1.35;;
15258;SDS011;34462;51.368;12.364;2023-07-28T09:58:09;1.00;;;0.90;;
15258;SDS011;34462;51.368;12.364;2023-07-28T10:00:40;1.00;;;0.90;;
15258;SDS011;34462;51.368;12.364;2023-07-28T10:03:09;1.00;;;0.90;;
15258;SDS011;34462;51.368;12.364;2023-07-28T10:05:39;2.92;;;1.00;;
15258;SDS011;34462;51.368;12.364;2023-07-28T10:08:08;1.10;;;1.00;;
15258;SDS011;34462;51.368;12.364;2023-07-28T10:10:39;0.80;;;0.80;;
15258;SDS011;34462;51.368;12.364;2023-07-28T10:13:18;0.88;;;0.88;;
15258;SDS011;34462;51.368;12.364;2023-07-28T10:15:49;1.77;;;1.10;;
15258;SDS011;34462;51.368;12.364;2023-07-28T10:18:19;1.27;;;0.93;;
15258;SDS011;34462;51.368;12.364;2023-07-28T10:20:48;2.58;;;1.27;;
15258;SDS011;34462;51.368;12.364;2023-07-28T10:23:17;1.30;;;0.93;;
15258;SDS011;34462;51.368;12.364;2023-07-28T10:25:55;1.35;;;1.20;;
15258;SDS011;34462;51.368;12.364;2023-07-28T10:28:27;1.77;;;1.13;;
15258;SDS011;34462;51.368;12.364;2023-07-28T10:30:59;1.20;;;1.10;;
15258;SDS011;34462;51.368;12.364;2023-07-28T10:33:30;1.10;;;1.10;;
15258;SDS011;34462;51.368;12.364;2023-07-28T10:36:11;1.10;;;0.98;;
15258;SDS011;34462;51.368;12.364;2023-07-28T10:38:42;1.70;;;0.98;;
15258;SDS011;34462;51.368;12.364;2023-07-28T10:41:11;2.10;;;1.05;;
15258;SDS011;34462;51.368;12.364;2023-07-28T10:43:43;1.05;;;1.00;;
15258;SDS011;34462;51.368;12.364;2023-07-28T10:46:15;1.50;;;1.15;;
15258;SDS011;34462;51.368;12.364;2023-07-28T10:48:45;1.27;;;1.10;;
15258;SDS011;34462;51.368;12.364;2023-07-28T10:51:22;1.58;;;1.20;;
15258;SDS011;34462;51.368;12.364;2023-07-28T10:53:54;0.98;;;0.90;;
15258;SDS011;34462;51.368;12.364;2023-07-28T10:56:24;1.10;;;1.00;;
15258;SDS011;34462;51.368;12.364;2023-07-28T10:58:56;1.27;;;1.17;;
15258;SDS011;34462;51.368;12.364;2023-07-28T11:01:31;2.05;;;1.10;;
15258;SDS011;34462;51.368;12.364;2023-07-28T11:04:10;1.33;;;1.00;;
15258;SDS011;34462;51.368;12.364;2023-07-28T11:06:41;1.20;;;1.10;;
15258;SDS011;34462;51.368;12.364;2023-07-28T11:09:10;1.20;;;1.10;;
15258;SDS011;34462;51.368;12.364;2023-07-28T11:11:41;3.92;;;1.30;;
15258;SDS011;34462;51.368;12.364;2023-07-28T11:14:14;1.35;;;1.08;;
15258;SDS011;34462;51.368;12.364;2023-07-28T11:16:45;1.13;;;1.02;;
15258;SDS011;34462;51.368;12.364;2023-07-28T11:19:15;1.30;;;1.20;;
15258;SDS011;34462;51.368;12.364;2023-07-28T11:21:51;1.77;;;1.20;;
15258;SDS011;34462;51.368;12.364;2023-07-28T11:24:20;1.58;;;1.00;;
15258;SDS011;34462;51.368;12.364;2023-07-28T11:26:50;0.90;;;0.90;;
15258;SDS011;34462;51.368;12.364;2023-07-28T11:29:20;0.90;;;0.90;;
15258;SDS011;34462;51.368;12.364;2023-07-28T11:31:50;2.55;;;1.20;;
15258;SDS011;34462;51.368;12.364;2023-07-28T11:34:19;1.05;;;1.00;;
15258;SDS011;34462;51.368;12.364;2023-07-28T11:36:48;1.27;;;1.17;;
15258;SDS011;34462;51.368;12.364;2023-07-28T11:39:17;1.30;;;1.20;;
15258;SDS011;34462;51.368;12.364;2023-07-28T11:41:48;1.55;;;1.15;;
15258;SDS011;34462;51.368;12.364;2023-07-28T11:44:20;2.45;;;1.13;;
15258;SDS011;34462;51.368;12.364;2023-07-28T11:46:50;2.60;;;1.15;;
15258;SDS011;34462;51.368;12.364;2023-07-28T11:49:21;1.15;;;1.10;;
15258;SDS011;34462;51.368;12.364;2023-07-28T11:51:51;2.50;;;1.08;;
15258;SDS011;34462;51.368;12.364;2023-07-28T11:54:25;1.20;;;1.10;;
15258;SDS011;34462;51.368;12.364;2023-07-28T11:56:54;1.00;;;1.00;;
15258;SDS011;34462;51.368;12.364;2023-07-28T11:59:24;1.98;;;1.15;;
15258;SDS011;34462;51.368;12.364;2023-07-28T12:01:54;2.13;;;1.13;;
15258;SDS011;34462;51.368;12.364;2023-07-28T12:04:27;2.28;;;1.20;;
15258;SDS011;34462;51.368;12.364;2023-07-28T12:07:01;1.80;;;1.38;;
15258;SDS011;34462;51.368;12.364;2023-07-28T12:09:50;1.00;;;1.00;;
15258;SDS011;34462;51.368;12.364;2023-07-28T12:12:23;1.55;;;1.27;;
15258;SDS011;34462;51.368;12.364;2023-07-28T12:14:53;1.35;;;1.20;;
15258;SDS011;34462;51.368;12.364;2023-07-28T12:17:26;1.30;;;1.20;;
15258;SDS011;34462;51.368;12.364;2023-07-28T12:20:14;0.95;;;0.95;;
15258;SDS011;34462;51.368;12.364;2023-07-28T12:22:44;1.95;;;1.30;;
15258;SDS011;34462;51.368;12.364;2023-07-28T12:25:13;1.15;;;1.13;;
15258;SDS011;34462;51.368;12.364;2023-07-28T12:27:42;2.03;;;1.00;;
15258;SDS011;34462;51.368;12.364;2023-07-28T12:30:11;0.95;;;0.95;;
15258;SDS011;34462;51.368;12.364;2023-07-28T12:32:44;2.83;;;1.45;;
15258;SDS011;34462;51.368;12.364;2023-07-28T12:35:16;2.00;;;1.05;;
15258;SDS011;34462;51.368;12.364;2023-07-28T12:37:45;1.25;;;1.05;;
15258;SDS011;34462;51.368;12.364;2023-07-28T12:40:16;4.00;;;1.20;;
15258;SDS011;34462;51.368;12.364;2023-07-28T12:42:49;2.08;;;1.17;;
15258;SDS011;34462;51.368;12.364;2023-07-28T12:45:20;1.77;;;1.00;;
15258;SDS011;34462;51.368;12.364;2023-07-28T12:47:53;1.00;;;1.00;;
15258;SDS011;34462;51.368;12.364;2023-07-28T12:50:24;1.60;;;1.05;;
15258;SDS011;34462;51.368;12.364;2023-07-28T12:52:53;1.83;;;1.00;;
15258;SDS011;34462;51.368;12.364;2023-07-28T12:55:24;1.23;;;1.10;;
15258;SDS011;34462;51.368;12.364;2023-07-28T12:57:54;2.13;;;1.10;;
15258;SDS011;34462;51.368;12.364;2023-07-28T13:00:24;1.38;;;1.10;;
15258;SDS011;34462;51.368;12.364;2023-07-28T13:02:58;1.00;;;0.90;;
15258;SDS011;34462;51.368;12.364;2023-07-28T13:05:27;1.20;;;1.00;;
15258;SDS011;34462;51.368;12.364;2023-07-28T13:07:55;3.25;;;1.23;;
15258;SDS011;34462;51.368;12.364;2023-07-28T13:10:27;5.60;;;1.13;;
15258;SDS011;34462;51.368;12.364;2023-07-28T13:12:58;2.03;;;1.02;;
15258;SDS011;34462;51.368;12.364;2023-07-28T13:15:27;1.00;;;1.00;;
15258;SDS011;34462;51.368;12.364;2023-07-28T13:17:55;1.30;;;1.20;;
15258;SDS011;34462;51.368;12.364;2023-07-28T13:20:25;1.48;;;1.38;;
15258;SDS011;34462;51.368;12.364;2023-07-28T13:22:54;1.40;;;1.30;;
15258;SDS011;34462;51.368;12.364;2023-07-28T13:25:25;1.30;;;1.20;;
15258;SDS011;34462;51.368;12.364;2023-07-28T13:27:54;1.30;;;1.20;;
15258;SDS011;34462;51.368;12.364;2023-07-28T13:30:23;1.38;;;1.08;;
15258;SDS011;34462;51.368;12.364;2023-07-28T13:32:55;2.25;;;1.15;;
15258;SDS011;34462;51.368;12.364;2023-07-28T13:35:23;0.90;;;0.90;;
15258;SDS011;34462;51.368;12.364;2023-07-28T13:37:53;1.55;;;1.10;;
15258;SDS011;34462;51.368;12.364;2023-07-28T13:40:22;1.17;;;1.10;;
15258;SDS011;34462;51.368;12.364;2023-07-28T13:42:53;2.33;;;1.10;;
15258;SDS011;34462;51.368;12.364;2023-07-28T13:45:21;2.28;;;1.30;;
15258;SDS011;34462;51.368;12.364;2023-07-28T13:47:50;1.75;;;1.17;;
15258;SDS011;34462;51.368;12.364;2023-07-28T13:50:19;1.25;;;1.15;;
15258;SDS011;34462;51.368;12.364;2023-07-28T13:52:49;1.55;;;1.10;;
15258;SDS011;34462;51.368;12.364;2023-07-28T13:55:18;1.40;;;1.30;;
15258;SDS011;34462;51.368;12.364;2023-07-28T13:58:06;1.27;;;1.10;;
15258;SDS011;34462;51.368;12.364;2023-07-28T14:00:35;2.92;;;1.30;;
15258;SDS011;34462;51.368;12.364;2023-07-28T14:03:03;2.25;;;1.20;;
15258;SDS011;34462;51.368;12.364;2023-07-28T14:05:32;1.20;;;1.10;;
15258;SDS011;34462;51.368;12.364;2023-07-28T14:08:02;1.85;;;1.17;;
15258;SDS011;34462;51.368;12.364;2023-07-28T14:10:31;1.40;;;1.30;;
15258;SDS011;34462;51.368;12.364;2023-07-28T14:12:59;1.38;;;1.10;;
15258;SDS011;34462;51.368;12.364;2023-07-28T14:15:29;1.48;;;1.15;;
15258;SDS011;34462;51.368;12.364;2023-07-28T14:17:57;1.35;;;1.25;;
15258;SDS011;34462;51.368;12.364;2023-07-28T14:20:26;1.30;;;1.20;;
15258;SDS011;34462;51.368;12.364;2023-07-28T14:22:54;1.20;;;1.10;;
15258;SDS011;34462;51.368;12.364;2023-07-28T14:25:24;1.27;;;1.10;;
15258;SDS011;34462;51.368;12.364;2023-07-28T14:27:53;1.23;;;1.20;;
15258;SDS011;34462;51.368;12.364;2023-07-28T14:30:22;1.35;;;1.25;;
15258;SDS011;34462;51.368;12.364;2023-07-28T14:32:50;1.38;;;1.00;;
15258;SDS011;34462;51.368;12.364;2023-07-28T14:35:21;1.50;;;1.40;;
15258;SDS011;34462;51.368;12.364;2023-07-28T14:37:49;1.15;;;1.15;;
15258;SDS011;34462;51.368;12.364;2023-07-28T14:40:18;1.55;;;1.20;;
15258;SDS011;34462;51.368;12.364;2023-07-28T14:42:47;1.50;;;1.40;;
15258;SDS011;34462;51.368;12.364;2023-07-28T14:45:16;1.35;;;1.25;;
15258;SDS011;34462;51.368;12.364;2023-07-28T14:47:47;1.30;;;1.20;;